sensor_id;sensor_type;location;lat;lon;timestamp;temperature;humidity
67586;SHT31;55785;47.946;20.540;2023-05-14T00:00:28;7.68;86.80
67586;SHT31;55785;47.946;20.540;2023-05-14T00:02:53;7.67;86.51
67586;SHT31;55785;47.946;20.540;2023-05-14T00:05:19;7.74;86.42
67586;SHT31;55785;47.946;20.540;2023-05-14T00:07:44;7.65;86.11
67586;SHT31;55785;47.946;20.540;2023-05-14T00:10:09;7.59;86.19
67586;SHT31;55785;47.946;20.540;2023-05-14T00:12:35;7.50;86.36
67586;SHT31;55785;47.946;20.540;2023-05-14T00:15:00;7.47;86.33
67586;SHT31;55785;47.946;20.540;2023-05-14T00:17:25;7.50;86.29
67586;SHT31;55785;47.946;20.540;2023-05-14T00:19:51;7.44;86.20
67586;SHT31;55785;47.946;20.540;2023-05-14T00:22:16;7.44;86.26
67586;SHT31;55785;47.946;20.540;2023-05-14T00:24:41;7.44;87.00
67586;SHT31;55785;47.946;20.540;2023-05-14T00:27:07;7.52;86.80
67586;SHT31;55785;47.946;20.540;2023-05-14T00:29:32;7.46;86.54
67586;SHT31;55785;47.946;20.540;2023-05-14T00:31:57;7.41;86.30
67586;SHT31;55785;47.946;20.540;2023-05-14T00:34:23;7.37;86.28
67586;SHT31;55785;47.946;20.540;2023-05-14T00:36:50;7.31;86.47
67586;SHT31;55785;47.946;20.540;2023-05-14T00:39:15;7.38;86.83
67586;SHT31;55785;47.946;20.540;2023-05-14T00:41:40;7.38;86.91
67586;SHT31;55785;47.946;20.540;2023-05-14T00:44:06;7.41;86.77
67586;SHT31;55785;47.946;20.540;2023-05-14T00:46:31;7.48;86.74
67586;SHT31;55785;47.946;20.540;2023-05-14T00:48:57;7.55;86.67
67586;SHT31;55785;47.946;20.540;2023-05-14T00:51:23;7.54;86.76
67586;SHT31;55785;47.946;20.540;2023-05-14T00:53:49;7.61;86.76
67586;SHT31;55785;47.946;20.540;2023-05-14T00:56:15;7.62;86.71
67586;SHT31;55785;47.946;20.540;2023-05-14T00:58:41;7.55;86.48
67586;SHT31;55785;47.946;20.540;2023-05-14T01:01:06;7.57;86.55
67586;SHT31;55785;47.946;20.540;2023-05-14T01:03:32;7.48;86.63
67586;SHT31;55785;47.946;20.540;2023-05-14T01:06:07;7.41;86.50
67586;SHT31;55785;47.946;20.540;2023-05-14T01:12:04;7.43;86.30
67586;SHT31;55785;47.946;20.540;2023-05-14T01:14:22;7.44;86.44
67586;SHT31;55785;47.946;20.540;2023-05-14T01:16:51;7.37;86.32
67586;SHT31;55785;47.946;20.540;2023-05-14T01:19:48;7.40;86.53
67586;SHT31;55785;47.946;20.540;2023-05-14T01:22:14;7.38;86.44
67586;SHT31;55785;47.946;20.540;2023-05-14T01:24:40;7.41;86.48
67586;SHT31;55785;47.946;20.540;2023-05-14T01:27:34;7.44;86.52
67586;SHT31;55785;47.946;20.540;2023-05-14T01:30:11;7.52;86.68
67586;SHT31;55785;47.946;20.540;2023-05-14T01:32:38;7.51;86.56
67586;SHT31;55785;47.946;20.540;2023-05-14T01:35:05;7.47;86.21
67586;SHT31;55785;47.946;20.540;2023-05-14T01:37:31;7.44;85.94
67586;SHT31;55785;47.946;20.540;2023-05-14T01:39:58;7.41;85.90
67586;SHT31;55785;47.946;20.540;2023-05-14T01:42:24;7.32;85.80
67586;SHT31;55785;47.946;20.540;2023-05-14T01:44:50;7.26;85.71
67586;SHT31;55785;47.946;20.540;2023-05-14T01:47:15;7.17;85.60
67586;SHT31;55785;47.946;20.540;2023-05-14T01:49:40;7.21;85.85
67586;SHT31;55785;47.946;20.540;2023-05-14T01:52:06;7.23;86.42
67586;SHT31;55785;47.946;20.540;2023-05-14T01:54:31;7.27;86.53
67586;SHT31;55785;47.946;20.540;2023-05-14T01:56:57;7.27;86.51
67586;SHT31;55785;47.946;20.540;2023-05-14T01:59:22;7.24;86.42
67586;SHT31;55785;47.946;20.540;2023-05-14T02:01:47;7.21;86.28
67586;SHT31;55785;47.946;20.540;2023-05-14T02:04:13;7.13;85.99
67586;SHT31;55785;47.946;20.540;2023-05-14T02:06:38;7.06;86.01
67586;SHT31;55785;47.946;20.540;2023-05-14T02:09:04;6.99;86.08
67586;SHT31;55785;47.946;20.540;2023-05-14T02:11:29;7.00;86.24
67586;SHT31;55785;47.946;20.540;2023-05-14T02:13:54;6.96;86.23
67586;SHT31;55785;47.946;20.540;2023-05-14T02:16:20;6.95;86.29
67586;SHT31;55785;47.946;20.540;2023-05-14T02:18:45;6.97;86.28
67586;SHT31;55785;47.946;20.540;2023-05-14T02:21:10;6.95;86.32
67586;SHT31;55785;47.946;20.540;2023-05-14T02:23:36;6.86;85.90
67586;SHT31;55785;47.946;20.540;2023-05-14T02:26:01;6.79;86.05
67586;SHT31;55785;47.946;20.540;2023-05-14T02:28:26;6.82;86.42
67586;SHT31;55785;47.946;20.540;2023-05-14T02:30:57;6.79;86.53
67586;SHT31;55785;47.946;20.540;2023-05-14T02:33:22;6.82;86.79
67586;SHT31;55785;47.946;20.540;2023-05-14T02:35:48;6.90;87.04
67586;SHT31;55785;47.946;20.540;2023-05-14T02:38:13;6.89;87.07
67586;SHT31;55785;47.946;20.540;2023-05-14T02:40:38;6.88;86.97
67586;SHT31;55785;47.946;20.540;2023-05-14T02:43:04;6.89;86.96
67586;SHT31;55785;47.946;20.540;2023-05-14T02:45:29;6.85;86.74
67586;SHT31;55785;47.946;20.540;2023-05-14T02:47:54;6.76;86.92
67586;SHT31;55785;47.946;20.540;2023-05-14T02:50:20;6.80;86.94
67586;SHT31;55785;47.946;20.540;2023-05-14T02:52:45;6.73;87.22
67586;SHT31;55785;47.946;20.540;2023-05-14T02:55:10;6.78;87.29
67586;SHT31;55785;47.946;20.540;2023-05-14T02:57:36;6.76;87.14
67586;SHT31;55785;47.946;20.540;2023-05-14T03:00:01;6.83;87.40
67586;SHT31;55785;47.946;20.540;2023-05-14T03:02:26;6.85;87.35
67586;SHT31;55785;47.946;20.540;2023-05-14T03:04:52;6.89;87.45
67586;SHT31;55785;47.946;20.540;2023-05-14T03:07:17;6.88;87.41
67586;SHT31;55785;47.946;20.540;2023-05-14T03:09:42;6.92;87.50
67586;SHT31;55785;47.946;20.540;2023-05-14T03:12:08;6.92;87.39
67586;SHT31;55785;47.946;20.540;2023-05-14T03:14:33;6.80;87.22
67586;SHT31;55785;47.946;20.540;2023-05-14T03:16:58;6.83;87.03
67586;SHT31;55785;47.946;20.540;2023-05-14T03:19:24;6.73;86.90
67586;SHT31;55785;47.946;20.540;2023-05-14T03:21:49;6.71;86.84
67586;SHT31;55785;47.946;20.540;2023-05-14T03:24:14;6.52;86.33
67586;SHT31;55785;47.946;20.540;2023-05-14T03:26:40;6.49;86.53
67586;SHT31;55785;47.946;20.540;2023-05-14T03:29:05;6.49;87.03
67586;SHT31;55785;47.946;20.540;2023-05-14T03:31:30;6.51;87.13
67586;SHT31;55785;47.946;20.540;2023-05-14T03:33:56;6.52;87.54
67586;SHT31;55785;47.946;20.540;2023-05-14T03:36:21;6.64;88.29
67586;SHT31;55785;47.946;20.540;2023-05-14T03:38:46;6.76;88.09
67586;SHT31;55785;47.946;20.540;2023-05-14T03:41:12;6.78;87.52
67586;SHT31;55785;47.946;20.540;2023-05-14T03:43:37;6.82;87.60
67586;SHT31;55785;47.946;20.540;2023-05-14T03:46:03;6.83;87.39
67586;SHT31;55785;47.946;20.540;2023-05-14T03:48:28;6.89;88.27
67586;SHT31;55785;47.946;20.540;2023-05-14T03:50:53;7.09;88.38
67586;SHT31;55785;47.946;20.540;2023-05-14T03:53:19;7.23;88.36
67586;SHT31;55785;47.946;20.540;2023-05-14T03:55:44;7.40;88.40
67586;SHT31;55785;47.946;20.540;2023-05-14T03:58:09;7.58;88.58
67586;SHT31;55785;47.946;20.540;2023-05-14T04:00:35;7.82;88.55
67586;SHT31;55785;47.946;20.540;2023-05-14T04:03:00;7.98;88.57
67586;SHT31;55785;47.946;20.540;2023-05-14T04:05:25;8.09;88.70
67586;SHT31;55785;47.946;20.540;2023-05-14T04:07:51;8.27;88.47
67586;SHT31;55785;47.946;20.540;2023-05-14T04:10:16;8.40;88.11
67586;SHT31;55785;47.946;20.540;2023-05-14T04:12:41;8.79;87.25
67586;SHT31;55785;47.946;20.540;2023-05-14T04:34:34;11.32;77.04
67586;SHT31;55785;47.946;20.540;2023-05-14T04:36:59;11.35;77.37
67586;SHT31;55785;47.946;20.540;2023-05-14T04:39:24;11.43;75.97
67586;SHT31;55785;47.946;20.540;2023-05-14T04:41:50;11.58;75.47
67586;SHT31;55785;47.946;20.540;2023-05-14T04:44:15;11.66;75.05
67586;SHT31;55785;47.946;20.540;2023-05-14T04:46:40;11.75;75.05
67586;SHT31;55785;47.946;20.540;2023-05-14T04:49:06;11.75;74.73
67586;SHT31;55785;47.946;20.540;2023-05-14T04:51:31;11.72;75.36
67586;SHT31;55785;47.946;20.540;2023-05-14T04:53:56;11.82;74.08
67586;SHT31;55785;47.946;20.540;2023-05-14T04:56:22;11.94;73.37
67586;SHT31;55785;47.946;20.540;2023-05-14T04:58:47;12.03;73.45
67586;SHT31;55785;47.946;20.540;2023-05-14T05:01:12;12.07;72.51
67586;SHT31;55785;47.946;20.540;2023-05-14T05:03:37;12.23;72.92
67586;SHT31;55785;47.946;20.540;2023-05-14T05:06:03;12.33;72.58
67586;SHT31;55785;47.946;20.540;2023-05-14T05:08:29;12.54;73.20
67586;SHT31;55785;47.946;20.540;2023-05-14T05:10:54;12.65;71.28
67586;SHT31;55785;47.946;20.540;2023-05-14T05:13:20;12.81;71.49
67586;SHT31;55785;47.946;20.540;2023-05-14T05:15:45;12.83;70.73
67586;SHT31;55785;47.946;20.540;2023-05-14T05:18:10;12.78;70.13
67586;SHT31;55785;47.946;20.540;2023-05-14T05:20:36;12.73;71.65
67586;SHT31;55785;47.946;20.540;2023-05-14T05:23:01;12.71;70.34
67586;SHT31;55785;47.946;20.540;2023-05-14T05:25:26;12.75;70.32
67586;SHT31;55785;47.946;20.540;2023-05-14T05:27:52;12.72;71.24
67586;SHT31;55785;47.946;20.540;2023-05-14T05:30:17;12.76;70.21
67586;SHT31;55785;47.946;20.540;2023-05-14T05:32:42;12.76;70.22
67586;SHT31;55785;47.946;20.540;2023-05-14T05:35:08;12.86;70.98
67586;SHT31;55785;47.946;20.540;2023-05-14T05:37:33;12.96;70.15
67586;SHT31;55785;47.946;20.540;2023-05-14T05:39:59;13.07;68.95
67586;SHT31;55785;47.946;20.540;2023-05-14T05:42:24;13.17;69.96
67586;SHT31;55785;47.946;20.540;2023-05-14T05:44:49;13.28;70.32
67586;SHT31;55785;47.946;20.540;2023-05-14T05:47:15;13.27;69.97
67586;SHT31;55785;47.946;20.540;2023-05-14T05:49:40;13.13;68.77
67586;SHT31;55785;47.946;20.540;2023-05-14T05:52:05;13.10;67.86
67586;SHT31;55785;47.946;20.540;2023-05-14T05:54:31;13.06;68.36
67586;SHT31;55785;47.946;20.540;2023-05-14T05:56:57;13.03;68.48
67586;SHT31;55785;47.946;20.540;2023-05-14T05:59:23;13.04;69.03
67586;SHT31;55785;47.946;20.540;2023-05-14T06:01:48;13.00;69.10
67586;SHT31;55785;47.946;20.540;2023-05-14T06:04:14;13.06;69.93
67586;SHT31;55785;47.946;20.540;2023-05-14T06:06:39;13.09;70.76
67586;SHT31;55785;47.946;20.540;2023-05-14T06:09:04;13.09;70.41
67586;SHT31;55785;47.946;20.540;2023-05-14T06:11:31;13.14;70.16
67586;SHT31;55785;47.946;20.540;2023-05-14T06:13:57;13.17;69.82
67586;SHT31;55785;47.946;20.540;2023-05-14T06:16:22;13.28;68.94
67586;SHT31;55785;47.946;20.540;2023-05-14T06:18:47;13.31;68.77
67586;SHT31;55785;47.946;20.540;2023-05-14T06:21:13;13.36;68.41
67586;SHT31;55785;47.946;20.540;2023-05-14T06:23:38;13.46;68.81
67586;SHT31;55785;47.946;20.540;2023-05-14T06:26:03;13.51;68.89
67586;SHT31;55785;47.946;20.540;2023-05-14T06:28:29;13.58;67.20
67586;SHT31;55785;47.946;20.540;2023-05-14T06:30:54;13.58;69.65
67586;SHT31;55785;47.946;20.540;2023-05-14T06:33:19;13.61;68.15
67586;SHT31;55785;47.946;20.540;2023-05-14T06:35:45;13.74;68.26
67586;SHT31;55785;47.946;20.540;2023-05-14T06:38:10;13.81;67.81
67586;SHT31;55785;47.946;20.540;2023-05-14T06:40:35;13.88;67.17
67586;SHT31;55785;47.946;20.540;2023-05-14T06:43:01;13.85;66.86
67586;SHT31;55785;47.946;20.540;2023-05-14T06:45:26;13.83;68.47
67586;SHT31;55785;47.946;20.540;2023-05-14T06:47:51;13.85;67.69
67586;SHT31;55785;47.946;20.540;2023-05-14T06:50:17;13.86;67.92
67586;SHT31;55785;47.946;20.540;2023-05-14T06:52:42;13.85;66.52
67586;SHT31;55785;47.946;20.540;2023-05-14T06:55:08;13.86;66.82
67586;SHT31;55785;47.946;20.540;2023-05-14T06:57:33;13.94;67.07
67586;SHT31;55785;47.946;20.540;2023-05-14T06:59:58;13.99;66.79
67586;SHT31;55785;47.946;20.540;2023-05-14T07:02:24;14.06;67.11
67586;SHT31;55785;47.946;20.540;2023-05-14T07:04:49;14.13;67.82
67586;SHT31;55785;47.946;20.540;2023-05-14T07:07:14;14.22;67.10
67586;SHT31;55785;47.946;20.540;2023-05-14T07:09:40;14.37;68.10
67586;SHT31;55785;47.946;20.540;2023-05-14T07:12:06;14.51;69.06
67586;SHT31;55785;47.946;20.540;2023-05-14T07:14:31;14.68;68.76
67586;SHT31;55785;47.946;20.540;2023-05-14T07:16:57;14.76;66.86
67586;SHT31;55785;47.946;20.540;2023-05-14T07:19:22;14.81;65.93
67586;SHT31;55785;47.946;20.540;2023-05-14T07:21:47;14.88;67.12
67586;SHT31;55785;47.946;20.540;2023-05-14T07:24:13;14.98;67.17
67586;SHT31;55785;47.946;20.540;2023-05-14T07:26:38;14.98;65.79
67586;SHT31;55785;47.946;20.540;2023-05-14T07:29:03;14.99;66.10
67586;SHT31;55785;47.946;20.540;2023-05-14T07:31:29;15.01;65.38
67586;SHT31;55785;47.946;20.540;2023-05-14T07:33:54;15.06;66.56
67586;SHT31;55785;47.946;20.540;2023-05-14T07:36:19;15.11;65.61
67586;SHT31;55785;47.946;20.540;2023-05-14T07:38:45;15.16;65.66
67586;SHT31;55785;47.946;20.540;2023-05-14T07:41:10;15.21;65.23
67586;SHT31;55785;47.946;20.540;2023-05-14T07:43:35;15.26;65.46
67586;SHT31;55785;47.946;20.540;2023-05-14T07:46:01;15.24;65.63
67586;SHT31;55785;47.946;20.540;2023-05-14T07:48:26;15.36;67.12
67586;SHT31;55785;47.946;20.540;2023-05-14T07:50:51;15.39;65.31
67586;SHT31;55785;47.946;20.540;2023-05-14T07:53:17;15.38;65.01
67586;SHT31;55785;47.946;20.540;2023-05-14T07:55:43;15.35;66.53
67586;SHT31;55785;47.946;20.540;2023-05-14T07:58:09;15.31;66.12
67586;SHT31;55785;47.946;20.540;2023-05-14T08:00:34;15.31;66.29
67586;SHT31;55785;47.946;20.540;2023-05-14T08:02:59;15.28;66.46
67586;SHT31;55785;47.946;20.540;2023-05-14T08:05:25;15.39;68.15
67586;SHT31;55785;47.946;20.540;2023-05-14T08:07:50;15.43;65.83
67586;SHT31;55785;47.946;20.540;2023-05-14T08:10:15;15.43;66.34
67586;SHT31;55785;47.946;20.540;2023-05-14T08:12:41;15.49;66.15
67586;SHT31;55785;47.946;20.540;2023-05-14T08:15:07;15.56;66.26
67586;SHT31;55785;47.946;20.540;2023-05-14T08:17:32;15.64;67.21
67586;SHT31;55785;47.946;20.540;2023-05-14T08:19:57;15.80;65.57
67586;SHT31;55785;47.946;20.540;2023-05-14T08:22:23;16.03;66.28
67586;SHT31;55785;47.946;20.540;2023-05-14T08:24:48;16.12;65.78
67586;SHT31;55785;47.946;20.540;2023-05-14T08:27:13;16.20;64.05
67586;SHT31;55785;47.946;20.540;2023-05-14T08:29:39;16.18;63.47
67586;SHT31;55785;47.946;20.540;2023-05-14T08:32:04;16.14;62.79
67586;SHT31;55785;47.946;20.540;2023-05-14T08:34:30;16.22;65.20
67586;SHT31;55785;47.946;20.540;2023-05-14T08:36:55;16.31;64.89
67586;SHT31;55785;47.946;20.540;2023-05-14T08:39:20;16.38;62.49
67586;SHT31;55785;47.946;20.540;2023-05-14T08:41:46;16.48;62.98
67586;SHT31;55785;47.946;20.540;2023-05-14T08:44:13;16.45;62.92
67586;SHT31;55785;47.946;20.540;2023-05-14T08:46:40;16.49;61.63
67586;SHT31;55785;47.946;20.540;2023-05-14T08:49:23;16.55;62.42
67586;SHT31;55785;47.946;20.540;2023-05-14T08:51:52;16.58;60.35
67586;SHT31;55785;47.946;20.540;2023-05-14T08:54:18;16.45;61.65
67586;SHT31;55785;47.946;20.540;2023-05-14T08:56:44;16.52;61.50
67586;SHT31;55785;47.946;20.540;2023-05-14T08:59:10;16.62;61.18
67586;SHT31;55785;47.946;20.540;2023-05-14T09:01:36;16.69;62.18
67586;SHT31;55785;47.946;20.540;2023-05-14T09:04:02;16.76;62.45
67586;SHT31;55785;47.946;20.540;2023-05-14T09:06:28;16.90;62.33
67586;SHT31;55785;47.946;20.540;2023-05-14T09:08:55;17.00;60.95
67586;SHT31;55785;47.946;20.540;2023-05-14T09:11:20;17.03;59.91
67586;SHT31;55785;47.946;20.540;2023-05-14T09:13:45;17.00;59.65
67586;SHT31;55785;47.946;20.540;2023-05-14T09:16:11;16.97;60.48
67586;SHT31;55785;47.946;20.540;2023-05-14T09:18:36;17.04;60.81
67586;SHT31;55785;47.946;20.540;2023-05-14T09:21:01;17.20;61.83
67586;SHT31;55785;47.946;20.540;2023-05-14T09:23:31;17.32;60.80
67586;SHT31;55785;47.946;20.540;2023-05-14T09:25:56;17.38;60.86
67586;SHT31;55785;47.946;20.540;2023-05-14T09:28:22;17.26;58.83
67586;SHT31;55785;47.946;20.540;2023-05-14T09:30:50;17.21;60.66
67586;SHT31;55785;47.946;20.540;2023-05-14T09:33:25;17.35;60.20
67586;SHT31;55785;47.946;20.540;2023-05-14T09:35:50;17.55;63.60
67586;SHT31;55785;47.946;20.540;2023-05-14T09:38:16;17.69;61.59
67586;SHT31;55785;47.946;20.540;2023-05-14T09:40:41;17.82;61.28
67586;SHT31;55785;47.946;20.540;2023-05-14T09:43:07;17.85;60.47
67586;SHT31;55785;47.946;20.540;2023-05-14T09:45:33;17.79;58.59
67586;SHT31;55785;47.946;20.540;2023-05-14T09:47:59;17.71;58.42
67586;SHT31;55785;47.946;20.540;2023-05-14T09:50:24;17.68;59.36
67586;SHT31;55785;47.946;20.540;2023-05-14T09:52:50;17.58;59.30
67586;SHT31;55785;47.946;20.540;2023-05-14T09:55:15;17.52;59.70
67586;SHT31;55785;47.946;20.540;2023-05-14T09:57:40;17.44;60.42
67586;SHT31;55785;47.946;20.540;2023-05-14T10:00:06;17.67;60.73
67586;SHT31;55785;47.946;20.540;2023-05-14T10:02:35;17.76;59.88
67586;SHT31;55785;47.946;20.540;2023-05-14T10:05:01;17.72;60.89
67586;SHT31;55785;47.946;20.540;2023-05-14T10:07:40;17.83;60.38
67586;SHT31;55785;47.946;20.540;2023-05-14T10:10:07;17.90;59.60
67586;SHT31;55785;47.946;20.540;2023-05-14T10:12:38;17.81;59.38
67586;SHT31;55785;47.946;20.540;2023-05-14T10:15:09;17.69;61.41
67586;SHT31;55785;47.946;20.540;2023-05-14T10:17:39;17.55;61.16
67586;SHT31;55785;47.946;20.540;2023-05-14T10:20:06;17.41;60.48
67586;SHT31;55785;47.946;20.540;2023-05-14T10:22:33;17.37;61.83
67586;SHT31;55785;47.946;20.540;2023-05-14T10:24:59;17.37;60.83
67586;SHT31;55785;47.946;20.540;2023-05-14T10:27:25;17.31;60.61
67586;SHT31;55785;47.946;20.540;2023-05-14T10:29:52;17.30;62.61
67586;SHT31;55785;47.946;20.540;2023-05-14T10:32:19;17.30;61.45
67586;SHT31;55785;47.946;20.540;2023-05-14T10:34:45;17.17;61.79
67586;SHT31;55785;47.946;20.540;2023-05-14T10:37:11;17.07;60.88
67586;SHT31;55785;47.946;20.540;2023-05-14T10:39:48;17.07;61.98
67586;SHT31;55785;47.946;20.540;2023-05-14T10:44:48;17.02;61.62
67586;SHT31;55785;47.946;20.540;2023-05-14T10:47:14;16.99;61.86
67586;SHT31;55785;47.946;20.540;2023-05-14T10:49:40;17.02;61.73
67586;SHT31;55785;47.946;20.540;2023-05-14T10:52:07;17.00;61.45
67586;SHT31;55785;47.946;20.540;2023-05-14T10:54:37;16.99;61.58
67586;SHT31;55785;47.946;20.540;2023-05-14T10:57:02;17.04;61.93
67586;SHT31;55785;47.946;20.540;2023-05-14T10:59:28;17.02;62.75
67586;SHT31;55785;47.946;20.540;2023-05-14T11:01:56;17.04;61.45
67586;SHT31;55785;47.946;20.540;2023-05-14T11:04:24;16.94;61.31
67586;SHT31;55785;47.946;20.540;2023-05-14T11:06:52;16.99;63.71
67586;SHT31;55785;47.946;20.540;2023-05-14T11:09:19;17.00;62.39
67586;SHT31;55785;47.946;20.540;2023-05-14T11:11:45;16.96;60.99
67586;SHT31;55785;47.946;20.540;2023-05-14T11:14:11;16.93;60.93
67586;SHT31;55785;47.946;20.540;2023-05-14T11:16:36;17.04;62.57
67586;SHT31;55785;47.946;20.540;2023-05-14T11:19:03;17.10;60.81
67586;SHT31;55785;47.946;20.540;2023-05-14T11:21:28;17.14;59.77
67586;SHT31;55785;47.946;20.540;2023-05-14T11:23:55;17.21;60.03
67586;SHT31;55785;47.946;20.540;2023-05-14T11:26:22;17.21;60.97
67586;SHT31;55785;47.946;20.540;2023-05-14T11:28:48;17.23;60.37
67586;SHT31;55785;47.946;20.540;2023-05-14T11:31:13;17.21;61.36
67586;SHT31;55785;47.946;20.540;2023-05-14T11:33:39;17.16;60.32
67586;SHT31;55785;47.946;20.540;2023-05-14T11:36:04;17.23;61.79
67586;SHT31;55785;47.946;20.540;2023-05-14T11:38:30;17.20;62.10
67586;SHT31;55785;47.946;20.540;2023-05-14T11:40:57;17.20;61.25
67586;SHT31;55785;47.946;20.540;2023-05-14T11:43:23;17.14;62.12
67586;SHT31;55785;47.946;20.540;2023-05-14T11:45:50;17.06;61.88
67586;SHT31;55785;47.946;20.540;2023-05-14T11:48:15;17.00;62.77
67586;SHT31;55785;47.946;20.540;2023-05-14T11:50:46;16.97;63.81
67586;SHT31;55785;47.946;20.540;2023-05-14T11:53:25;16.91;63.46
67586;SHT31;55785;47.946;20.540;2023-05-14T11:55:51;16.84;63.81
67586;SHT31;55785;47.946;20.540;2023-05-14T11:58:17;16.80;64.40
67586;SHT31;55785;47.946;20.540;2023-05-14T12:00:49;16.76;65.10
67586;SHT31;55785;47.946;20.540;2023-05-14T12:03:15;16.70;63.94
67586;SHT31;55785;47.946;20.540;2023-05-14T12:05:40;16.68;65.56
67586;SHT31;55785;47.946;20.540;2023-05-14T12:08:24;16.73;66.61
67586;SHT31;55785;47.946;20.540;2023-05-14T12:10:51;16.72;66.59
67586;SHT31;55785;47.946;20.540;2023-05-14T12:13:17;16.69;66.72
67586;SHT31;55785;47.946;20.540;2023-05-14T12:16:01;16.69;67.12
67586;SHT31;55785;47.946;20.540;2023-05-14T12:18:29;16.66;66.03
67586;SHT31;55785;47.946;20.540;2023-05-14T12:21:00;16.68;66.76
67586;SHT31;55785;47.946;20.540;2023-05-14T12:23:27;16.66;67.63
67586;SHT31;55785;47.946;20.540;2023-05-14T12:25:53;16.63;67.94
67586;SHT31;55785;47.946;20.540;2023-05-14T12:28:18;16.65;66.88
67586;SHT31;55785;47.946;20.540;2023-05-14T12:30:47;16.72;67.88
67586;SHT31;55785;47.946;20.540;2023-05-14T12:33:13;16.69;67.96
67586;SHT31;55785;47.946;20.540;2023-05-14T12:35:38;16.72;69.31
67586;SHT31;55785;47.946;20.540;2023-05-14T12:38:03;16.72;69.52
67586;SHT31;55785;47.946;20.540;2023-05-14T12:40:29;16.70;69.18
67586;SHT31;55785;47.946;20.540;2023-05-14T12:42:54;16.69;69.67
67586;SHT31;55785;47.946;20.540;2023-05-14T12:45:20;16.68;68.19
67586;SHT31;55785;47.946;20.540;2023-05-14T12:47:45;16.59;67.45
67586;SHT31;55785;47.946;20.540;2023-05-14T12:50:11;16.52;68.34
67586;SHT31;55785;47.946;20.540;2023-05-14T12:52:36;16.48;67.17
67586;SHT31;55785;47.946;20.540;2023-05-14T12:55:01;16.41;67.27
67586;SHT31;55785;47.946;20.540;2023-05-14T12:57:27;16.42;66.44
67586;SHT31;55785;47.946;20.540;2023-05-14T12:59:54;16.35;67.75
67586;SHT31;55785;47.946;20.540;2023-05-14T13:02:19;16.26;69.04
67586;SHT31;55785;47.946;20.540;2023-05-14T13:04:44;16.22;71.01
67586;SHT31;55785;47.946;20.540;2023-05-14T13:07:10;16.14;71.71
67586;SHT31;55785;47.946;20.540;2023-05-14T13:09:35;16.08;72.53
67586;SHT31;55785;47.946;20.540;2023-05-14T13:12:00;16.05;73.10
67586;SHT31;55785;47.946;20.540;2023-05-14T13:14:26;16.00;72.54
67586;SHT31;55785;47.946;20.540;2023-05-14T13:16:51;15.93;74.91
67586;SHT31;55785;47.946;20.540;2023-05-14T13:19:16;15.91;75.69
67586;SHT31;55785;47.946;20.540;2023-05-14T13:21:42;15.91;75.89
67586;SHT31;55785;47.946;20.540;2023-05-14T13:24:07;15.89;74.99
67586;SHT31;55785;47.946;20.540;2023-05-14T13:26:33;15.90;75.64
67586;SHT31;55785;47.946;20.540;2023-05-14T13:28:58;15.90;75.51
67586;SHT31;55785;47.946;20.540;2023-05-14T13:31:23;15.91;74.97
67586;SHT31;55785;47.946;20.540;2023-05-14T13:33:49;15.93;75.74
67586;SHT31;55785;47.946;20.540;2023-05-14T13:36:14;15.96;76.92
67586;SHT31;55785;47.946;20.540;2023-05-14T13:38:39;16.01;76.56
67586;SHT31;55785;47.946;20.540;2023-05-14T13:41:05;16.11;77.43
67586;SHT31;55785;47.946;20.540;2023-05-14T13:43:31;16.12;77.70
67586;SHT31;55785;47.946;20.540;2023-05-14T13:45:57;16.20;78.11
67586;SHT31;55785;47.946;20.540;2023-05-14T13:48:23;16.21;78.66
67586;SHT31;55785;47.946;20.540;2023-05-14T13:50:48;16.15;77.81
67586;SHT31;55785;47.946;20.540;2023-05-14T13:53:14;16.15;78.94
67586;SHT31;55785;47.946;20.540;2023-05-14T13:55:39;16.17;78.85
67586;SHT31;55785;47.946;20.540;2023-05-14T13:58:05;16.17;78.45
67586;SHT31;55785;47.946;20.540;2023-05-14T14:00:30;16.22;79.82
67586;SHT31;55785;47.946;20.540;2023-05-14T14:02:55;16.14;78.40
67586;SHT31;55785;47.946;20.540;2023-05-14T14:05:21;16.20;80.23
67586;SHT31;55785;47.946;20.540;2023-05-14T14:07:46;16.07;78.41
67586;SHT31;55785;47.946;20.540;2023-05-14T14:10:11;16.05;78.86
67586;SHT31;55785;47.946;20.540;2023-05-14T14:12:37;15.98;78.89
67586;SHT31;55785;47.946;20.540;2023-05-14T14:15:03;15.87;79.88
67586;SHT31;55785;47.946;20.540;2023-05-14T14:17:29;15.80;79.40
67586;SHT31;55785;47.946;20.540;2023-05-14T14:19:54;15.77;80.07
67586;SHT31;55785;47.946;20.540;2023-05-14T14:22:19;15.73;80.13
67586;SHT31;55785;47.946;20.540;2023-05-14T14:24:45;15.66;80.69
67586;SHT31;55785;47.946;20.540;2023-05-14T14:27:10;15.49;81.33
67586;SHT31;55785;47.946;20.540;2023-05-14T14:29:35;15.56;81.55
67586;SHT31;55785;47.946;20.540;2023-05-14T14:32:01;15.57;81.58
67586;SHT31;55785;47.946;20.540;2023-05-14T14:34:27;15.34;80.49
67586;SHT31;55785;47.946;20.540;2023-05-14T14:36:52;15.34;81.13
67586;SHT31;55785;47.946;20.540;2023-05-14T14:39:18;15.22;81.76
67586;SHT31;55785;47.946;20.540;2023-05-14T14:41:43;15.24;81.42
67586;SHT31;55785;47.946;20.540;2023-05-14T14:44:08;15.12;81.20
67586;SHT31;55785;47.946;20.540;2023-05-14T14:46:34;15.05;81.11
67586;SHT31;55785;47.946;20.540;2023-05-14T14:48:59;14.95;81.56
67586;SHT31;55785;47.946;20.540;2023-05-14T14:51:24;14.76;82.50
67586;SHT31;55785;47.946;20.540;2023-05-14T14:53:50;14.78;82.60
67586;SHT31;55785;47.946;20.540;2023-05-14T14:56:15;14.83;82.54
67586;SHT31;55785;47.946;20.540;2023-05-14T14:58:40;14.81;82.42
67586;SHT31;55785;47.946;20.540;2023-05-14T15:01:06;14.81;82.38
67586;SHT31;55785;47.946;20.540;2023-05-14T15:03:31;14.81;83.37
67586;SHT31;55785;47.946;20.540;2023-05-14T15:05:56;14.84;83.67
67586;SHT31;55785;47.946;20.540;2023-05-14T15:08:25;14.85;84.01
67586;SHT31;55785;47.946;20.540;2023-05-14T15:10:51;14.87;84.28
67586;SHT31;55785;47.946;20.540;2023-05-14T15:13:16;14.70;83.54
67586;SHT31;55785;47.946;20.540;2023-05-14T15:15:41;14.66;83.56
67586;SHT31;55785;47.946;20.540;2023-05-14T15:18:07;14.68;84.23
67586;SHT31;55785;47.946;20.540;2023-05-14T15:20:32;14.68;84.07
67586;SHT31;55785;47.946;20.540;2023-05-14T15:22:57;14.49;84.71
67586;SHT31;55785;47.946;20.540;2023-05-14T15:25:23;14.46;84.73
67586;SHT31;55785;47.946;20.540;2023-05-14T15:27:49;14.50;84.53
67586;SHT31;55785;47.946;20.540;2023-05-14T15:30:15;14.46;84.87
67586;SHT31;55785;47.946;20.540;2023-05-14T15:32:41;14.29;84.85
67586;SHT31;55785;47.946;20.540;2023-05-14T15:35:06;14.26;85.35
67586;SHT31;55785;47.946;20.540;2023-05-14T15:37:50;14.16;85.27